sensor_id;sensor_type;location;lat;lon;timestamp;P1;durP1;ratioP1;P2;durP2;ratioP2
27576;SDS011;15011;53.380;10.034;2022-09-30T00:03:35;25.77;;;15.73;;
27576;SDS011;15011;53.380;10.034;2022-09-30T00:08:38;18.45;;;12.98;;
27576;SDS011;15011;53.380;10.034;2022-09-30T00:13:39;18.88;;;13.15;;
27576;SDS011;15011;53.380;10.034;2022-09-30T00:18:40;17.67;;;12.13;;
27576;SDS011;15011;53.380;10.034;2022-09-30T00:23:41;23.30;;;14.10;;
27576;SDS011;15011;53.380;10.034;2022-09-30T00:28:43;26.37;;;14.30;;
27576;SDS011;15011;53.380;10.034;2022-09-30T00:33:44;19.35;;;13.05;;
27576;SDS011;15011;53.380;10.034;2022-09-30T00:39:05;21.67;;;14.15;;
27576;SDS011;15011;53.380;10.034;2022-09-30T00:49:44;26.20;;;16.17;;
27576;SDS011;15011;53.380;10.034;2022-09-30T00:54:45;26.70;;;15.05;;
27576;SDS011;15011;53.380;10.034;2022-09-30T00:59:46;20.30;;;14.70;;
27576;SDS011;15011;53.380;10.034;2022-09-30T01:04:47;24.63;;;14.43;;
27576;SDS011;15011;53.380;10.034;2022-09-30T01:09:47;33.03;;;18.00;;
27576;SDS011;15011;53.380;10.034;2022-09-30T01:14:48;25.45;;;15.23;;
27576;SDS011;15011;53.380;10.034;2022-09-30T01:41:56;27.58;;;17.77;;
27576;SDS011;15011;53.380;10.034;2022-09-30T01:52:33;27.80;;;16.73;;
27576;SDS011;15011;53.380;10.034;2022-09-30T01:57:49;29.27;;;18.10;;
27576;SDS011;15011;53.380;10.034;2022-09-30T02:03:25;34.53;;;20.10;;
27576;SDS011;15011;53.380;10.034;2022-09-30T02:09:13;29.67;;;19.67;;
27576;SDS011;15011;53.380;10.034;2022-09-30T02:19:28;41.40;;;23.77;;
27576;SDS011;15011;53.380;10.034;2022-09-30T02:24:33;36.88;;;22.08;;
27576;SDS011;15011;53.380;10.034;2022-09-30T02:29:37;39.35;;;22.30;;
27576;SDS011;15011;53.380;10.034;2022-09-30T02:34:41;36.55;;;21.90;;
27576;SDS011;15011;53.380;10.034;2022-09-30T02:45:08;35.03;;;21.90;;
27576;SDS011;15011;53.380;10.034;2022-09-30T02:55:46;29.52;;;18.55;;
27576;SDS011;15011;53.380;10.034;2022-09-30T03:00:50;38.00;;;22.08;;
27576;SDS011;15011;53.380;10.034;2022-09-30T03:05:51;32.08;;;18.38;;
27576;SDS011;15011;53.380;10.034;2022-09-30T03:10:51;29.60;;;18.27;;
27576;SDS011;15011;53.380;10.034;2022-09-30T03:16:08;28.83;;;17.63;;
27576;SDS011;15011;53.380;10.034;2022-09-30T03:21:25;37.95;;;22.63;;
27576;SDS011;15011;53.380;10.034;2022-09-30T03:26:42;28.95;;;19.15;;
27576;SDS011;15011;53.380;10.034;2022-09-30T03:32:37;32.85;;;19.52;;
27576;SDS011;15011;53.380;10.034;2022-09-30T03:37:27;34.97;;;19.98;;
27576;SDS011;15011;53.380;10.034;2022-09-30T03:42:37;25.90;;;17.08;;
27576;SDS011;15011;53.380;10.034;2022-09-30T03:47:41;35.17;;;20.38;;
27576;SDS011;15011;53.380;10.034;2022-09-30T03:52:44;28.13;;;18.40;;
27576;SDS011;15011;53.380;10.034;2022-09-30T03:57:44;40.40;;;22.10;;
27576;SDS011;15011;53.380;10.034;2022-09-30T04:02:45;25.33;;;17.33;;
27576;SDS011;15011;53.380;10.034;2022-09-30T04:07:45;32.08;;;20.25;;
27576;SDS011;15011;53.380;10.034;2022-09-30T04:12:46;28.23;;;18.77;;
27576;SDS011;15011;53.380;10.034;2022-09-30T04:17:46;30.03;;;19.63;;
27576;SDS011;15011;53.380;10.034;2022-09-30T04:22:47;43.90;;;25.17;;
27576;SDS011;15011;53.380;10.034;2022-09-30T04:27:47;35.40;;;21.90;;
27576;SDS011;15011;53.380;10.034;2022-09-30T04:32:48;37.00;;;23.02;;
27576;SDS011;15011;53.380;10.034;2022-09-30T04:37:49;36.10;;;22.48;;
27576;SDS011;15011;53.380;10.034;2022-09-30T04:42:49;33.35;;;19.98;;
27576;SDS011;15011;53.380;10.034;2022-09-30T04:47:50;35.83;;;22.10;;
27576;SDS011;15011;53.380;10.034;2022-09-30T04:52:50;31.35;;;20.13;;
27576;SDS011;15011;53.380;10.034;2022-09-30T04:57:50;43.65;;;24.70;;
27576;SDS011;15011;53.380;10.034;2022-09-30T05:02:51;33.42;;;20.60;;
27576;SDS011;15011;53.380;10.034;2022-09-30T05:07:51;34.78;;;22.42;;
27576;SDS011;15011;53.380;10.034;2022-09-30T05:12:52;30.83;;;20.33;;
27576;SDS011;15011;53.380;10.034;2022-09-30T05:17:53;35.20;;;22.77;;
27576;SDS011;15011;53.380;10.034;2022-09-30T05:22:54;40.33;;;24.05;;
27576;SDS011;15011;53.380;10.034;2022-09-30T05:27:55;35.87;;;22.30;;
27576;SDS011;15011;53.380;10.034;2022-09-30T05:32:55;34.47;;;21.63;;
27576;SDS011;15011;53.380;10.034;2022-09-30T05:37:56;35.22;;;19.48;;
27576;SDS011;15011;53.380;10.034;2022-09-30T05:42:56;27.10;;;17.85;;
27576;SDS011;15011;53.380;10.034;2022-09-30T05:47:57;30.33;;;18.77;;
27576;SDS011;15011;53.380;10.034;2022-09-30T05:52:59;27.73;;;17.98;;
27576;SDS011;15011;53.380;10.034;2022-09-30T05:57:59;37.33;;;21.67;;
27576;SDS011;15011;53.380;10.034;2022-09-30T06:03:00;29.20;;;18.63;;
27576;SDS011;15011;53.380;10.034;2022-09-30T06:08:00;33.00;;;21.95;;
27576;SDS011;15011;53.380;10.034;2022-09-30T06:13:02;33.22;;;22.15;;
27576;SDS011;15011;53.380;10.034;2022-09-30T06:18:02;34.22;;;21.95;;
27576;SDS011;15011;53.380;10.034;2022-09-30T06:23:03;29.05;;;20.40;;
27576;SDS011;15011;53.380;10.034;2022-09-30T06:28:04;33.67;;;22.77;;
27576;SDS011;15011;53.380;10.034;2022-09-30T06:33:04;28.67;;;21.38;;
27576;SDS011;15011;53.380;10.034;2022-09-30T06:38:05;35.67;;;22.58;;
27576;SDS011;15011;53.380;10.034;2022-09-30T06:43:05;32.55;;;22.27;;
27576;SDS011;15011;53.380;10.034;2022-09-30T06:48:06;32.75;;;23.80;;
27576;SDS011;15011;53.380;10.034;2022-09-30T06:53:09;31.95;;;22.45;;
27576;SDS011;15011;53.380;10.034;2022-09-30T06:58:14;32.65;;;21.95;;
27576;SDS011;15011;53.380;10.034;2022-09-30T07:03:23;30.08;;;21.52;;
27576;SDS011;15011;53.380;10.034;2022-09-30T07:08:25;29.02;;;21.23;;
27576;SDS011;15011;53.380;10.034;2022-09-30T07:13:30;29.67;;;21.58;;
27576;SDS011;15011;53.380;10.034;2022-09-30T07:18:32;30.07;;;20.80;;
27576;SDS011;15011;53.380;10.034;2022-09-30T07:23:33;25.55;;;19.88;;
27576;SDS011;15011;53.380;10.034;2022-09-30T07:28:34;30.63;;;20.98;;
27576;SDS011;15011;53.380;10.034;2022-09-30T07:33:35;30.60;;;22.08;;
27576;SDS011;15011;53.380;10.034;2022-09-30T07:38:36;22.80;;;18.23;;
27576;SDS011;15011;53.380;10.034;2022-09-30T07:43:41;25.42;;;19.83;;
27576;SDS011;15011;53.380;10.034;2022-09-30T07:48:43;22.23;;;16.98;;
27576;SDS011;15011;53.380;10.034;2022-09-30T07:53:51;19.77;;;16.30;;
27576;SDS011;15011;53.380;10.034;2022-09-30T07:58:53;22.45;;;16.20;;
27576;SDS011;15011;53.380;10.034;2022-09-30T08:03:56;19.50;;;14.02;;
27576;SDS011;15011;53.380;10.034;2022-09-30T08:08:59;16.80;;;12.60;;
27576;SDS011;15011;53.380;10.034;2022-09-30T08:13:59;13.07;;;10.75;;
27576;SDS011;15011;53.380;10.034;2022-09-30T08:19:00;11.35;;;9.27;;
27576;SDS011;15011;53.380;10.034;2022-09-30T08:24:02;10.52;;;8.35;;
27576;SDS011;15011;53.380;10.034;2022-09-30T08:29:02;9.27;;;7.05;;
27576;SDS011;15011;53.380;10.034;2022-09-30T08:34:03;8.95;;;6.68;;
27576;SDS011;15011;53.380;10.034;2022-09-30T08:39:03;9.05;;;7.57;;
27576;SDS011;15011;53.380;10.034;2022-09-30T08:54:33;9.60;;;8.60;;
27576;SDS011;15011;53.380;10.034;2022-09-30T08:59:35;9.80;;;8.20;;
27576;SDS011;15011;53.380;10.034;2022-09-30T09:04:38;11.55;;;8.70;;
27576;SDS011;15011;53.380;10.034;2022-09-30T09:20:32;10.32;;;8.25;;
27576;SDS011;15011;53.380;10.034;2022-09-30T09:25:40;9.05;;;7.82;;
27576;SDS011;15011;53.380;10.034;2022-09-30T09:30:42;12.02;;;7.50;;
27576;SDS011;15011;53.380;10.034;2022-09-30T09:35:50;10.88;;;8.68;;
27576;SDS011;15011;53.380;10.034;2022-09-30T09:41:56;10.15;;;7.45;;
27576;SDS011;15011;53.380;10.034;2022-09-30T09:46:47;10.10;;;7.35;;
27576;SDS011;15011;53.380;10.034;2022-09-30T09:57:04;5.88;;;4.63;;
27576;SDS011;15011;53.380;10.034;2022-09-30T10:02:25;3.95;;;2.45;;
27576;SDS011;15011;53.380;10.034;2022-09-30T10:07:31;2.28;;;1.83;;
27576;SDS011;15011;53.380;10.034;2022-09-30T10:12:32;2.35;;;1.20;;
27576;SDS011;15011;53.380;10.034;2022-09-30T10:17:33;1.30;;;1.20;;
27576;SDS011;15011;53.380;10.034;2022-09-30T10:22:35;2.67;;;1.30;;
27576;SDS011;15011;53.380;10.034;2022-09-30T10:27:35;5.53;;;2.17;;
27576;SDS011;15011;53.380;10.034;2022-09-30T10:32:36;3.80;;;1.67;;
27576;SDS011;15011;53.380;10.034;2022-09-30T10:37:36;2.90;;;1.60;;
27576;SDS011;15011;53.380;10.034;2022-09-30T10:42:38;2.70;;;1.70;;
27576;SDS011;15011;53.380;10.034;2022-09-30T10:47:43;2.58;;;1.45;;
27576;SDS011;15011;53.380;10.034;2022-09-30T10:58:24;5.20;;;2.10;;
27576;SDS011;15011;53.380;10.034;2022-09-30T11:03:29;4.30;;;2.75;;
27576;SDS011;15011;53.380;10.034;2022-09-30T11:14:06;3.85;;;2.90;;
27576;SDS011;15011;53.380;10.034;2022-09-30T11:19:26;3.63;;;2.92;;
27576;SDS011;15011;53.380;10.034;2022-09-30T11:24:33;5.78;;;3.30;;
27576;SDS011;15011;53.380;10.034;2022-09-30T11:35:07;6.03;;;3.92;;
27576;SDS011;15011;53.380;10.034;2022-09-30T11:40:26;9.20;;;5.38;;
27576;SDS011;15011;53.380;10.034;2022-09-30T11:56:28;4.70;;;3.58;;
27576;SDS011;15011;53.380;10.034;2022-09-30T12:01:33;7.03;;;4.00;;
27576;SDS011;15011;53.380;10.034;2022-09-30T12:06:45;5.95;;;3.85;;
27576;SDS011;15011;53.380;10.034;2022-09-30T12:17:24;8.00;;;4.30;;
27576;SDS011;15011;53.380;10.034;2022-09-30T12:27:34;4.22;;;3.08;;
27576;SDS011;15011;53.380;10.034;2022-09-30T12:49:20;5.93;;;3.00;;
27576;SDS011;15011;53.380;10.034;2022-09-30T12:54:33;5.68;;;3.25;;
27576;SDS011;15011;53.380;10.034;2022-09-30T12:59:37;3.95;;;2.58;;
27576;SDS011;15011;53.380;10.034;2022-09-30T13:04:39;5.35;;;3.03;;
27576;SDS011;15011;53.380;10.034;2022-09-30T13:09:55;5.57;;;2.90;;
27576;SDS011;15011;53.380;10.034;2022-09-30T13:15:58;5.35;;;3.00;;
27576;SDS011;15011;53.380;10.034;2022-09-30T13:52:42;4.68;;;3.55;;
27576;SDS011;15011;53.380;10.034;2022-09-30T14:03:01;4.97;;;3.55;;
27576;SDS011;15011;53.380;10.034;2022-09-30T14:14:09;5.78;;;3.78;;
27576;SDS011;15011;53.380;10.034;2022-09-30T14:24:37;6.72;;;4.55;;
27576;SDS011;15011;53.380;10.034;2022-09-30T14:34:58;4.95;;;4.13;;
27576;SDS011;15011;53.380;10.034;2022-09-30T14:39:59;6.88;;;3.67;;
27576;SDS011;15011;53.380;10.034;2022-09-30T14:45:00;4.85;;;3.20;;
27576;SDS011;15011;53.380;10.034;2022-09-30T14:50:18;7.93;;;3.95;;
27576;SDS011;15011;53.380;10.034;2022-09-30T14:55:33;9.15;;;3.80;;
27576;SDS011;15011;53.380;10.034;2022-09-30T15:00:34;6.43;;;4.25;;
27576;SDS011;15011;53.380;10.034;2022-09-30T15:05:36;5.75;;;3.25;;
27576;SDS011;15011;53.380;10.034;2022-09-30T15:10:36;5.60;;;4.13;;
27576;SDS011;15011;53.380;10.034;2022-09-30T15:15:37;5.07;;;3.72;;
27576;SDS011;15011;53.380;10.034;2022-09-30T15:20:39;6.50;;;3.85;;
27576;SDS011;15011;53.380;10.034;2022-09-30T15:25:42;5.85;;;3.50;;
27576;SDS011;15011;53.380;10.034;2022-09-30T15:30:42;6.53;;;3.42;;
27576;SDS011;15011;53.380;10.034;2022-09-30T15:35:43;4.60;;;3.05;;
27576;SDS011;15011;53.380;10.034;2022-09-30T15:40:44;4.00;;;2.70;;
27576;SDS011;15011;53.380;10.034;2022-09-30T15:45:45;4.07;;;2.63;;
27576;SDS011;15011;53.380;10.034;2022-09-30T15:50:48;6.38;;;2.90;;
27576;SDS011;15011;53.380;10.034;2022-09-30T15:55:52;6.18;;;3.97;;
27576;SDS011;15011;53.380;10.034;2022-09-30T16:06:16;5.38;;;3.28;;
27576;SDS011;15011;53.380;10.034;2022-09-30T16:11:25;5.97;;;3.38;;
27576;SDS011;15011;53.380;10.034;2022-09-30T16:16:31;9.43;;;3.08;;
27576;SDS011;15011;53.380;10.034;2022-09-30T16:26:44;12.43;;;8.02;;
27576;SDS011;15011;53.380;10.034;2022-09-30T16:31:45;6.72;;;2.83;;
27576;SDS011;15011;53.380;10.034;2022-09-30T16:36:46;4.13;;;2.92;;
27576;SDS011;15011;53.380;10.034;2022-09-30T16:41:47;5.68;;;2.75;;
27576;SDS011;15011;53.380;10.034;2022-09-30T16:46:48;9.63;;;4.47;;
27576;SDS011;15011;53.380;10.034;2022-09-30T16:51:50;9.27;;;4.75;;
27576;SDS011;15011;53.380;10.034;2022-09-30T16:56:50;7.93;;;4.15;;
27576;SDS011;15011;53.380;10.034;2022-09-30T17:01:51;7.43;;;3.00;;
27576;SDS011;15011;53.380;10.034;2022-09-30T17:06:52;7.07;;;2.92;;
27576;SDS011;15011;53.380;10.034;2022-09-30T17:11:55;7.85;;;3.00;;
27576;SDS011;15011;53.380;10.034;2022-09-30T17:17:00;4.22;;;3.05;;
27576;SDS011;15011;53.380;10.034;2022-09-30T17:22:01;4.50;;;2.90;;
27576;SDS011;15011;53.380;10.034;2022-09-30T17:27:02;6.10;;;2.53;;
27576;SDS011;15011;53.380;10.034;2022-09-30T17:32:03;5.55;;;2.97;;
27576;SDS011;15011;53.380;10.034;2022-09-30T17:37:03;5.28;;;2.50;;
27576;SDS011;15011;53.380;10.034;2022-09-30T17:42:03;4.50;;;2.88;;
27576;SDS011;15011;53.380;10.034;2022-09-30T17:47:22;15.85;;;8.98;;
27576;SDS011;15011;53.380;10.034;2022-09-30T17:52:22;9.83;;;5.17;;
27576;SDS011;15011;53.380;10.034;2022-09-30T17:57:24;8.70;;;4.65;;
27576;SDS011;15011;53.380;10.034;2022-09-30T18:02:24;12.43;;;5.18;;
27576;SDS011;15011;53.380;10.034;2022-09-30T18:07:25;8.73;;;4.35;;
27576;SDS011;15011;53.380;10.034;2022-09-30T18:12:26;7.90;;;4.20;;
27576;SDS011;15011;53.380;10.034;2022-09-30T18:17:27;10.93;;;4.63;;
27576;SDS011;15011;53.380;10.034;2022-09-30T18:22:28;7.97;;;4.43;;
27576;SDS011;15011;53.380;10.034;2022-09-30T18:27:28;5.03;;;3.70;;
27576;SDS011;15011;53.380;10.034;2022-09-30T18:32:32;7.07;;;3.97;;
27576;SDS011;15011;53.380;10.034;2022-09-30T18:37:33;9.05;;;4.25;;
27576;SDS011;15011;53.380;10.034;2022-09-30T18:42:33;6.50;;;4.13;;
27576;SDS011;15011;53.380;10.034;2022-09-30T18:47:39;8.98;;;4.15;;
27576;SDS011;15011;53.380;10.034;2022-09-30T18:52:41;7.25;;;4.18;;
27576;SDS011;15011;53.380;10.034;2022-09-30T18:57:41;17.33;;;6.00;;
27576;SDS011;15011;53.380;10.034;2022-09-30T19:02:42;10.13;;;4.50;;
27576;SDS011;15011;53.380;10.034;2022-09-30T19:07:43;8.15;;;4.70;;
27576;SDS011;15011;53.380;10.034;2022-09-30T19:12:44;8.63;;;4.40;;
27576;SDS011;15011;53.380;10.034;2022-09-30T19:17:44;9.10;;;5.40;;
27576;SDS011;15011;53.380;10.034;2022-09-30T19:22:45;10.95;;;6.55;;
27576;SDS011;15011;53.380;10.034;2022-09-30T19:27:49;10.82;;;6.82;;
27576;SDS011;15011;53.380;10.034;2022-09-30T19:32:52;18.17;;;9.30;;
27576;SDS011;15011;53.380;10.034;2022-09-30T19:37:55;9.40;;;7.47;;
27576;SDS011;15011;53.380;10.034;2022-09-30T19:42:57;11.80;;;7.25;;
27576;SDS011;15011;53.380;10.034;2022-09-30T19:47:58;14.13;;;10.90;;
27576;SDS011;15011;53.380;10.034;2022-09-30T19:53:05;11.85;;;8.80;;
27576;SDS011;15011;53.380;10.034;2022-09-30T19:58:06;14.00;;;8.40;;
27576;SDS011;15011;53.380;10.034;2022-09-30T20:03:06;47.80;;;27.58;;
27576;SDS011;15011;53.380;10.034;2022-09-30T20:08:07;116.72;;;57.70;;
27576;SDS011;15011;53.380;10.034;2022-09-30T20:13:07;89.97;;;39.42;;
27576;SDS011;15011;53.380;10.034;2022-09-30T20:18:08;83.07;;;34.83;;
27576;SDS011;15011;53.380;10.034;2022-09-30T20:23:08;118.15;;;47.90;;
27576;SDS011;15011;53.380;10.034;2022-09-30T20:28:09;26.80;;;12.63;;
27576;SDS011;15011;53.380;10.034;2022-09-30T20:33:19;29.13;;;12.32;;
27576;SDS011;15011;53.380;10.034;2022-09-30T20:38:23;14.13;;;7.32;;
27576;SDS011;15011;53.380;10.034;2022-09-30T20:43:24;14.10;;;6.63;;
27576;SDS011;15011;53.380;10.034;2022-09-30T20:48:32;11.48;;;5.55;;
27576;SDS011;15011;53.380;10.034;2022-09-30T20:53:33;20.15;;;9.05;;
27576;SDS011;15011;53.380;10.034;2022-09-30T20:58:37;10.60;;;6.63;;
27576;SDS011;15011;53.380;10.034;2022-09-30T21:03:38;23.70;;;9.30;;
27576;SDS011;15011;53.380;10.034;2022-09-30T21:08:40;9.40;;;6.70;;
27576;SDS011;15011;53.380;10.034;2022-09-30T21:13:43;9.05;;;5.43;;
27576;SDS011;15011;53.380;10.034;2022-09-30T21:18:44;16.70;;;8.75;;
27576;SDS011;15011;53.380;10.034;2022-09-30T21:23:45;15.80;;;9.45;;
27576;SDS011;15011;53.380;10.034;2022-09-30T21:28:45;15.48;;;7.45;;
27576;SDS011;15011;53.380;10.034;2022-09-30T21:33:50;16.05;;;8.20;;
27576;SDS011;15011;53.380;10.034;2022-09-30T21:38:52;9.10;;;5.63;;
27576;SDS011;15011;53.380;10.034;2022-09-30T21:43:53;10.43;;;6.10;;
27576;SDS011;15011;53.380;10.034;2022-09-30T21:49:05;10.95;;;5.88;;
27576;SDS011;15011;53.380;10.034;2022-09-30T21:54:06;16.98;;;11.20;;
27576;SDS011;15011;53.380;10.034;2022-09-30T21:59:09;9.07;;;6.05;;
27576;SDS011;15011;53.380;10.034;2022-09-30T22:04:10;7.70;;;5.22;;
27576;SDS011;15011;53.380;10.034;2022-09-30T22:09:11;12.50;;;7.35;;
27576;SDS011;15011;53.380;10.034;2022-09-30T22:14:12;9.77;;;5.47;;
27576;SDS011;15011;53.380;10.034;2022-09-30T22:19:12;10.32;;;5.30;;
27576;SDS011;15011;53.380;10.034;2022-09-30T22:24:13;6.90;;;4.82;;
27576;SDS011;15011;53.380;10.034;2022-09-30T22:29:14;5.75;;;4.70;;
27576;SDS011;15011;53.380;10.034;2022-09-30T22:34:14;7.53;;;4.68;;
27576;SDS011;15011;53.380;10.034;2022-09-30T22:39:33;7.00;;;4.28;;
27576;SDS011;15011;53.380;10.034;2022-09-30T22:44:34;8.70;;;4.63;;
27576;SDS011;15011;53.380;10.034;2022-09-30T22:49:36;10.68;;;5.32;;
27576;SDS011;15011;53.380;10.034;2022-09-30T22:54:36;6.63;;;3.95;;
27576;SDS011;15011;53.380;10.034;2022-09-30T22:59:36;6.07;;;3.92;;
27576;SDS011;15011;53.380;10.034;2022-09-30T23:04:37;7.80;;;4.00;;
27576;SDS011;15011;53.380;10.034;2022-09-30T23:09:37;4.93;;;3.50;;
27576;SDS011;15011;53.380;10.034;2022-09-30T23:14:38;5.63;;;3.65;;
27576;SDS011;15011;53.380;10.034;2022-09-30T23:19:38;6.78;;;3.65;;
27576;SDS011;15011;53.380;10.034;2022-09-30T23:24:39;6.63;;;3.55;;
27576;SDS011;15011;53.380;10.034;2022-09-30T23:29:40;8.55;;;3.70;;
27576;SDS011;15011;53.380;10.034;2022-09-30T23:34:40;6.38;;;3.47;;
27576;SDS011;15011;53.380;10.034;2022-09-30T23:39:41;6.03;;;3.90;;
27576;SDS011;15011;53.380;10.034;2022-09-30T23:44:41;4.95;;;3.22;;
27576;SDS011;15011;53.380;10.034;2022-09-30T23:49:41;5.28;;;3.22;;
27576;SDS011;15011;53.380;10.034;2022-09-30T23:54:42;6.13;;;3.28;;
27576;SDS011;15011;53.380;10.034;2022-09-30T23:59:43;4.78;;;3.22;;
